Time;durP1;ratioP1;P1;durP2;ratioP2;P2;SDS_P1;SDS_P2;PMS_P1;PMS_P2;Temp;Humidity;BMP_temperature;BMP_pressure;BME280_temperature;BME280_humidity;BME280_pressure;Samples;Min_cycle;Max_cycle;Signal;HPM_P1;HPM_P2
2022/04/04 00:00:48;;;;;;;4.63;4.23;;;3.00;76.70;2.70;96613.00;;;;4937884;28;20823;-84
2022/04/04 00:03:15;;;;;;;4.63;4.27;;;3.00;76.90;2.70;96610.00;;;;4948329;28;20459;-84
2022/04/04 00:05:43;;;;;;;5.00;4.13;;;3.00;76.80;2.70;96602.00;;;;4939217;29;20522;-84
2022/04/04 00:08:10;;;;;;;4.67;4.37;;;3.10;76.80;2.70;96614.00;;;;4948210;28;20491;-84
2022/04/04 00:10:38;;;;;;;4.57;4.17;;;3.00;76.70;2.70;96610.00;;;;4945780;28;20467;-83
2022/04/04 00:13:08;;;;;;;4.80;4.40;;;2.90;76.80;2.60;96599.00;;;;4944356;28;20503;-84
2022/04/04 00:15:35;;;;;;;4.47;4.10;;;2.90;76.80;2.60;96603.00;;;;4934506;28;20530;-84
2022/04/04 00:18:07;;;;;;;3.97;3.67;;;2.90;76.80;2.60;96602.00;;;;4933272;28;20965;-83
2022/04/04 00:20:35;;;;;;;4.73;4.33;;;2.90;76.80;2.60;96597.00;;;;4940169;28;20441;-84
2022/04/04 00:23:02;;;;;;;4.87;4.37;;;2.90;77.00;2.60;96604.00;;;;4942287;28;20912;-84
2022/04/04 00:25:29;;;;;;;5.20;4.23;;;2.90;77.00;2.60;96605.00;;;;4966159;23;20484;-81
2022/04/04 00:27:57;;;;;;;4.23;3.87;;;2.80;76.90;2.50;96601.00;;;;4941900;28;20542;-81
2022/04/04 00:30:24;;;;;;;4.80;4.40;;;2.80;77.00;2.50;96591.00;;;;4945990;29;20463;-81
2022/04/04 00:32:51;;;;;;;4.83;4.43;;;2.80;77.10;2.50;96599.00;;;;4947811;28;20446;-81
2022/04/04 00:35:18;;;;;;;4.83;4.20;;;2.80;77.10;2.50;96598.00;;;;4952104;28;20450;-82
2022/04/04 00:37:45;;;;;;;4.73;4.30;;;2.80;77.20;2.50;96601.00;;;;4938144;28;20445;-82
2022/04/04 00:40:13;;;;;;;4.83;4.43;;;2.80;77.10;2.50;96593.00;;;;4942619;28;20447;-81
2022/04/04 00:42:41;;;;;;;4.87;4.47;;;2.80;77.10;2.50;96591.00;;;;4951649;29;20447;-83
2022/04/04 00:45:10;;;;;;;4.70;4.30;;;2.80;77.10;2.40;96588.00;;;;4949765;29;20436;-84
2022/04/04 00:47:37;;;;;;;4.90;4.50;;;2.70;76.90;2.40;96591.00;;;;4952096;29;20432;-82
2022/04/04 00:50:06;;;;;;;4.60;4.20;;;2.80;77.00;2.40;96591.00;;;;4934696;28;20945;-83
2022/04/04 00:52:34;;;;;;;4.70;4.30;;;2.70;76.80;2.40;96587.00;;;;4951226;29;20870;-83
2022/04/04 00:55:01;;;;;;;5.23;4.73;;;2.70;76.90;2.30;96577.00;;;;4949630;28;20451;-83
2022/04/04 00:57:29;;;;;;;5.13;4.73;;;2.70;77.10;2.30;96582.00;;;;4951457;28;20454;-84
2022/04/04 00:59:56;;;;;;;4.83;4.43;;;2.60;77.20;2.30;96587.00;;;;4950215;28;20432;-83
2022/04/04 01:02:25;;;;;;;5.20;4.70;;;2.60;77.20;2.30;96585.00;;;;4973524;28;20479;-82
2022/04/04 01:04:52;;;;;;;5.13;4.73;;;2.60;77.00;2.30;96587.00;;;;4954360;28;20431;-83
2022/04/04 01:07:19;;;;;;;5.33;4.83;;;2.60;77.20;2.30;96579.00;;;;4969178;28;20470;-83
2022/04/04 01:09:47;;;;;;;4.97;4.57;;;2.60;77.40;2.30;96580.00;;;;4970106;28;20569;-83
2022/04/04 01:12:15;;;;;;;4.87;4.47;;;2.60;77.50;2.30;96570.00;;;;4969867;28;20471;-83
2022/04/04 01:14:47;;;;;;;5.53;4.97;;;2.50;77.50;2.30;96572.00;;;;4970604;28;20447;-83
2022/04/04 01:17:16;;;;;;;5.70;4.30;;;2.50;77.70;2.30;96576.00;;;;4970766;28;20912;-83
2022/04/04 01:19:45;;;;;;;5.10;4.60;;;2.50;77.60;2.30;96576.00;;;;4970654;28;20916;-83
2022/04/04 01:22:14;;;;;;;5.20;4.70;;;2.50;77.60;2.20;96574.00;;;;4970027;28;20554;-83
2022/04/04 01:24:44;;;;;;;4.57;4.23;;;2.50;77.60;2.20;96565.00;;;;4931781;28;21222;-84
2022/04/04 01:27:13;;;;;;;4.80;4.40;;;2.50;77.70;2.20;96562.00;;;;4934584;29;20440;-83
2022/04/04 01:29:40;;;;;;;4.70;4.30;;;2.50;77.70;2.20;96563.00;;;;4935029;29;20512;-82
2022/04/04 01:32:09;;;;;;;5.33;4.90;;;2.50;77.70;2.20;96559.00;;;;4935781;28;20456;-84
2022/04/04 01:34:37;;;;;;;5.10;4.50;;;2.50;77.90;2.20;96559.00;;;;4954892;29;20458;-83
2022/04/04 01:37:04;;;;;;;4.97;4.57;;;2.50;78.60;2.20;96552.00;;;;4954411;29;20443;-83
2022/04/04 01:39:31;;;;;;;4.60;4.20;;;2.50;79.30;2.20;96557.00;;;;4954306;29;20442;-83
2022/04/04 01:42:00;;;;;;;4.73;4.33;;;2.50;79.70;2.20;96543.00;;;;4954298;28;20826;-83
2022/04/04 01:44:27;;;;;;;5.20;4.60;;;2.50;80.00;2.20;96552.00;;;;4954206;28;20432;-83
2022/04/04 01:46:54;;;;;;;5.17;4.23;;;2.60;80.00;2.20;96548.00;;;;4954064;29;20454;-83
2022/04/04 01:49:21;;;;;;;7.30;5.10;;;2.60;79.90;2.20;96541.00;;;;4953751;29;20497;-83
2022/04/04 01:51:48;;;;;;;5.10;4.30;;;2.60;79.80;2.20;96548.00;;;;4954476;28;20459;-83
2022/04/04 01:54:15;;;;;;;4.73;4.33;;;2.60;79.60;2.20;96545.00;;;;4955510;29;20454;-83
2022/04/04 01:56:43;;;;;;;5.43;4.93;;;2.60;79.60;2.20;96543.00;;;;4955207;29;20451;-83
2022/04/04 01:59:11;;;;;;;4.50;4.20;;;2.60;79.00;2.10;96536.00;;;;4954952;28;20439;-83
2022/04/04 02:01:39;;;;;;;5.07;4.67;;;2.50;78.40;2.10;96540.00;;;;4955524;28;20463;-83
2022/04/04 02:04:09;;;;;;;6.07;3.83;;;2.50;78.10;2.10;96534.00;;;;4954588;29;20466;-83
2022/04/04 02:06:36;;;;;;;4.43;4.10;;;2.50;78.30;2.00;96525.00;;;;4954373;29;20909;-83
2022/04/04 02:09:03;;;;;;;4.60;4.30;;;2.50;78.40;2.00;96531.00;;;;4954188;28;20475;-82
2022/04/04 02:11:30;;;;;;;5.13;4.27;;;2.40;78.20;2.00;96527.00;;;;4954709;28;20538;-83
2022/04/04 02:13:58;;;;;;;4.57;4.17;;;2.40;77.90;1.90;96521.00;;;;4954818;28;20447;-83
2022/04/04 02:16:27;;;;;;;4.77;4.37;;;2.40;77.60;1.90;96519.00;;;;4954776;29;20925;-83
2022/04/04 02:18:54;;;;;;;4.90;4.50;;;2.30;77.40;1.80;96520.00;;;;4954665;29;20879;-83
2022/04/04 02:21:21;;;;;;;4.70;4.30;;;2.30;77.60;1.80;96520.00;;;;4954215;28;20551;-82
2022/04/04 02:23:48;;;;;;;4.57;4.27;;;2.20;77.70;1.80;96520.00;;;;4954348;29;20447;-84
2022/04/04 02:26:15;;;;;;;4.63;4.23;;;2.20;77.60;1.80;96528.00;;;;4954329;28;20456;-82
2022/04/04 02:28:42;;;;;;;5.07;4.67;;;2.20;77.70;1.70;96521.00;;;;4953994;29;20483;-83
2022/04/04 02:31:09;;;;;;;4.60;4.13;;;2.20;77.70;1.70;96515.00;;;;4953744;28;20454;-82
2022/04/04 02:33:38;;;;;;;4.30;4.00;;;2.10;77.60;1.70;96519.00;;;;4953727;29;20448;-83
2022/04/04 02:36:06;;;;;;;4.67;4.27;;;2.10;77.30;1.60;96520.00;;;;4953817;28;20431;-83
2022/04/04 02:38:33;;;;;;;4.90;4.50;;;2.00;77.10;1.60;96515.00;;;;4954029;29;20444;-83
2022/04/04 02:41:00;;;;;;;4.97;4.57;;;2.00;77.30;1.60;96505.00;;;;4954021;28;20470;-83
2022/04/04 02:43:27;;;;;;;4.53;4.17;;;2.00;77.30;1.60;96502.00;;;;4953618;29;20446;-83
2022/04/04 02:45:55;;;;;;;5.90;4.67;;;1.90;77.20;1.50;96502.00;;;;4953489;29;20444;-83
2022/04/04 02:48:22;;;;;;;4.97;4.47;;;1.90;77.90;1.50;96492.00;;;;4953489;28;20937;-83
2022/04/04 02:50:52;;;;;;;4.63;4.23;;;1.90;77.10;1.50;96504.00;;;;4953238;28;20452;-83
2022/04/04 02:53:19;;;;;;;4.27;3.93;;;1.90;77.20;1.50;96493.00;;;;4945462;29;20894;-82
2022/04/04 02:58:30;;;;;;;4.83;4.43;;;1.80;77.50;1.50;96503.00;;;;4934490;29;20424;-83
2022/04/04 03:00:57;;;;;;;4.70;4.30;;;1.90;77.60;1.40;96499.00;;;;4934620;29;20464;-83
2022/04/04 03:03:24;;;;;;;6.57;4.53;;;1.80;77.40;1.40;96496.00;;;;4934168;29;20527;-83
2022/04/04 03:05:54;;;;;;;6.00;4.30;;;1.80;77.30;1.40;96495.00;;;;4954057;28;20463;-83
2022/04/04 03:08:21;;;;;;;4.87;4.47;;;1.80;77.30;1.40;96502.00;;;;4951485;28;21018;-83
2022/04/04 03:10:49;;;;;;;5.10;4.47;;;1.80;77.20;1.30;96502.00;;;;4952729;28;20487;-83
2022/04/04 03:13:16;;;;;;;4.70;4.30;;;1.70;76.90;1.30;96487.00;;;;4954038;28;20535;-83
2022/04/04 03:15:43;;;;;;;4.90;4.40;;;1.70;76.80;1.30;96495.00;;;;4954415;28;20436;-83
2022/04/04 03:18:11;;;;;;;5.00;4.60;;;1.70;76.90;1.30;96494.00;;;;4954616;28;20808;-83
2022/04/04 03:20:38;;;;;;;5.17;4.37;;;1.70;76.80;1.20;96487.00;;;;4953751;28;20464;-82
2022/04/04 03:23:07;;;;;;;5.87;4.77;;;1.60;76.70;1.20;96492.00;;;;4953689;28;20448;-83
2022/04/04 03:25:34;;;;;;;5.93;4.40;;;1.60;76.80;1.20;96496.00;;;;4953179;28;20999;-83
2022/04/04 03:28:01;;;;;;;4.77;4.37;;;1.60;76.80;1.20;96492.00;;;;4953182;29;20526;-82
2022/04/04 03:30:31;;;;;;;4.67;4.17;;;1.60;76.70;1.10;96488.00;;;;4952792;28;20479;-84
2022/04/04 03:32:59;;;;;;;4.50;4.10;;;1.60;76.50;1.10;96483.00;;;;4946071;29;20453;-83
2022/04/04 03:35:28;;;;;;;5.17;4.53;;;1.50;76.40;1.10;96479.00;;;;4934003;29;20807;-83
2022/04/04 03:37:59;;;;;;;4.80;4.40;;;1.50;76.60;1.10;96476.00;;;;4933952;29;20971;-83
2022/04/04 03:40:28;;;;;;;4.40;4.00;;;1.50;76.60;1.00;96468.00;;;;4933843;29;20476;-83
2022/04/04 03:42:58;;;;;;;6.73;4.80;;;1.50;76.50;1.00;96478.00;;;;4933921;29;20551;-83
2022/04/04 03:45:26;;;;;;;4.93;4.53;;;1.50;76.40;1.00;96468.00;;;;4933337;28;20443;-83
2022/04/04 03:47:54;;;;;;;5.10;4.60;;;1.40;76.40;1.00;96472.00;;;;4933069;29;20437;-83
2022/04/04 03:50:23;;;;;;;4.90;4.50;;;1.40;76.50;1.00;96473.00;;;;4933433;29;20496;-83
2022/04/04 03:52:52;;;;;;;5.20;4.70;;;1.40;76.40;0.90;96477.00;;;;4938422;29;20454;-83
2022/04/04 03:55:21;;;;;;;4.47;4.07;;;1.40;76.30;0.90;96478.00;;;;4952888;29;20440;-83
2022/04/04 03:57:51;;;;;;;4.70;4.33;;;1.30;76.00;0.90;96473.00;;;;4953653;29;20494;-82
2022/04/04 04:00:20;;;;;;;5.00;4.50;;;1.30;76.00;0.90;96472.00;;;;4952401;28;20439;-81
2022/04/04 04:02:47;;;;;;;5.73;5.13;;;1.30;76.30;0.80;96468.00;;;;4954285;28;20483;-83
2022/04/04 04:05:14;;;;;;;6.00;4.50;;;1.30;76.20;0.80;96470.00;;;;4953281;28;20428;-83
2022/04/04 04:07:42;;;;;;;4.83;4.43;;;1.20;76.20;0.80;96468.00;;;;4953473;28;20451;-83
2022/04/04 04:10:11;;;;;;;4.97;4.47;;;1.20;76.30;0.80;96465.00;;;;4953277;28;20855;-83
2022/04/04 04:12:39;;;;;;;5.13;4.20;;;1.20;76.30;0.80;96470.00;;;;4953022;29;20450;-83
2022/04/04 04:15:10;;;;;;;4.27;3.97;;;1.20;76.40;0.80;96465.00;;;;4953384;28;20432;-83
2022/04/04 04:17:38;;;;;;;5.30;4.77;;;1.20;76.40;0.80;96473.00;;;;4953413;28;20432;-83
2022/04/04 04:20:23;;;;;;;4.80;3.97;;;1.20;76.30;0.80;96468.00;;;;4953289;28;20444;-82
2022/04/04 04:22:55;;;;;;;4.93;4.53;;;1.20;76.20;0.70;96467.00;;;;4953222;28;20957;-83
2022/04/04 04:25:27;;;;;;;5.33;4.93;;;1.20;76.10;0.70;96468.00;;;;4952787;28;20610;-82
2022/04/04 04:27:55;;;;;;;5.00;4.50;;;1.10;76.30;0.70;96469.00;;;;4953361;28;20587;-82
2022/04/04 04:30:24;;;;;;;5.60;4.40;;;1.10;76.30;0.70;96471.00;;;;4952583;28;21031;-83
2022/04/04 04:32:53;;;;;;;6.07;4.57;;;1.10;76.30;0.70;96476.00;;;;4947226;28;20455;-83
2022/04/04 04:35:23;;;;;;;4.80;4.40;;;1.10;76.20;0.70;96468.00;;;;4932809;29;20433;-82
2022/04/04 04:37:51;;;;;;;4.60;4.23;;;1.10;76.20;0.60;96467.00;;;;4933305;29;20452;-83
2022/04/04 04:40:19;;;;;;;5.47;4.43;;;1.10;76.20;0.60;96478.00;;;;4933725;29;20441;-83
2022/04/04 04:42:49;;;;;;;4.90;4.50;;;1.10;76.20;0.60;96479.00;;;;4933857;28;20495;-83
2022/04/04 04:45:16;;;;;;;4.40;4.10;;;1.10;76.10;0.60;96476.00;;;;4937964;28;20452;-83
2022/04/04 04:47:44;;;;;;;5.30;4.53;;;1.00;76.20;0.60;96478.00;;;;4955450;28;20454;-82
2022/04/04 04:50:13;;;;;;;4.93;4.47;;;1.00;76.20;0.60;96466.00;;;;4953141;28;20483;-82
2022/04/04 04:52:41;;;;;;;5.30;3.90;;;1.00;76.20;0.60;96479.00;;;;4982237;28;20448;-82
2022/04/04 04:55:10;;;;;;;4.60;4.20;;;1.00;76.10;0.60;96477.00;;;;4952576;29;21008;-83
2022/04/04 04:57:38;;;;;;;5.03;4.40;;;1.00;76.20;0.70;96465.00;;;;4951343;29;20436;-83
2022/04/04 05:00:09;;;;;;;4.33;4.00;;;1.00;76.20;0.70;96483.00;;;;4953819;28;20454;-83
2022/04/04 05:02:37;;;;;;;5.43;4.13;;;1.00;76.00;0.70;96475.00;;;;4954583;28;20466;-82
2022/04/04 05:05:07;;;;;;;6.00;4.23;;;1.00;76.10;0.70;96473.00;;;;5009674;28;20913;-83
2022/04/04 05:07:34;;;;;;;4.57;4.23;;;1.00;75.90;0.70;96466.00;;;;5056306;28;20822;-82
2022/04/04 05:10:01;;;;;;;4.87;4.40;;;1.00;76.00;0.70;96469.00;;;;5056334;28;20536;-83
2022/04/04 05:12:28;;;;;;;4.43;4.13;;;1.00;76.10;0.70;96464.00;;;;5056169;28;20814;-83
2022/04/04 05:14:55;;;;;;;5.30;4.80;;;1.00;76.30;0.80;96460.00;;;;5056045;28;20465;-83
2022/04/04 05:17:22;;;;;;;7.60;6.80;;;1.00;76.40;0.80;96464.00;;;;5055850;28;20431;-82
2022/04/04 05:19:49;;;;;;;7.97;7.17;;;1.00;76.40;0.80;96460.00;;;;5056732;28;20534;-83
2022/04/04 05:22:17;;;;;;;9.53;7.47;;;1.00;76.50;0.80;96468.00;;;;5056660;28;20960;-83
2022/04/04 05:24:45;;;;;;;8.43;7.30;;;1.00;76.50;0.80;96470.00;;;;4956292;29;20452;-82
2022/04/04 05:27:12;;;;;;;7.23;6.53;;;1.00;76.40;0.80;96469.00;;;;4956195;28;20494;-80
2022/04/04 05:29:39;;;;;;;7.00;6.23;;;1.00;76.40;0.80;96474.00;;;;4955894;29;20490;-82
2022/04/04 05:32:06;;;;;;;6.10;5.50;;;1.00;76.40;0.90;96473.00;;;;4955987;28;20464;-82
2022/04/04 05:34:33;;;;;;;6.30;5.30;;;1.00;76.40;0.90;96472.00;;;;4955211;29;20471;-82
2022/04/04 05:37:01;;;;;;;5.90;5.33;;;1.00;76.40;0.90;96472.00;;;;4955020;29;20978;-82
2022/04/04 05:39:29;;;;;;;6.10;5.43;;;1.10;76.50;0.90;96475.00;;;;4955953;28;20834;-82
2022/04/04 05:41:56;;;;;;;5.50;5.00;;;1.10;76.60;0.90;96470.00;;;;5025219;28;20459;-80
2022/04/04 05:44:25;;;;;;;5.17;4.67;;;1.10;76.70;1.00;96474.00;;;;5056275;28;21031;-83
2022/04/04 05:46:52;;;;;;;6.23;5.50;;;1.10;76.80;1.00;96488.00;;;;5055597;28;20693;-83
2022/04/04 05:49:19;;;;;;;5.63;5.13;;;1.10;76.90;1.00;96480.00;;;;5054655;28;20457;-83
2022/04/04 05:51:46;;;;;;;7.53;5.40;;;1.20;77.10;1.10;96484.00;;;;4962342;28;20767;-83
2022/04/04 05:54:14;;;;;;;7.00;6.30;;;1.20;77.20;1.10;96493.00;;;;5019949;28;20823;-82
2022/04/04 05:56:44;;;;;;;7.43;5.87;;;1.20;77.30;1.10;96485.00;;;;5003906;28;20431;-81
2022/04/04 05:59:12;;;;;;;6.30;5.70;;;1.30;77.60;1.20;96485.00;;;;4953737;29;20510;-84
2022/04/04 06:01:39;;;;;;;7.13;5.83;;;1.30;77.60;1.20;96484.00;;;;4953795;28;20468;-83
2022/04/04 06:04:06;;;;;;;7.50;6.60;;;1.30;77.60;1.30;96485.00;;;;4954260;28;20451;-83
2022/04/04 06:06:34;;;;;;;7.87;7.07;;;1.40;77.70;1.30;96485.00;;;;4953782;28;20455;-82
2022/04/04 06:09:01;;;;;;;8.57;6.53;;;1.40;77.80;1.40;96490.00;;;;4954055;28;20443;-81
2022/04/04 06:11:29;;;;;;;8.40;6.90;;;1.50;78.00;1.40;96492.00;;;;4952933;28;20495;-83
2022/04/04 06:13:57;;;;;;;7.70;6.60;;;1.50;77.90;1.50;96485.00;;;;4953444;28;20451;-82
2022/04/04 06:16:24;;;;;;;7.43;6.13;;;1.60;78.00;1.50;96501.00;;;;4977924;28;20442;-83
2022/04/04 06:18:51;;;;;;;7.13;6.40;;;1.60;78.00;1.60;96492.00;;;;5035189;28;20531;-83
2022/04/04 06:21:18;;;;;;;7.73;6.47;;;1.70;78.10;1.70;96496.00;;;;5007786;28;20448;-82
2022/04/04 06:23:46;;;;;;;8.17;7.33;;;1.70;78.30;1.70;96501.00;;;;4942315;29;20527;-82
2022/04/04 06:26:13;;;;;;;7.10;6.47;;;1.80;78.20;1.80;96503.00;;;;4934390;29;20480;-83
2022/04/04 06:28:40;;;;;;;6.57;5.90;;;1.90;78.10;1.80;96498.00;;;;4941437;28;20486;-83
2022/04/04 06:31:10;;;;;;;6.63;5.97;;;1.90;78.20;1.90;96504.00;;;;4976736;28;20496;-83
2022/04/04 06:33:37;;;;;;;6.50;5.90;;;2.00;78.30;2.00;96506.00;;;;4948093;28;20451;-82
2022/04/04 06:36:05;;;;;;;6.03;5.33;;;2.10;78.30;2.10;96504.00;;;;4955866;28;20860;-82
2022/04/04 06:38:33;;;;;;;6.03;5.43;;;2.10;78.50;2.10;96501.00;;;;4961078;29;20449;-81
2022/04/04 06:41:00;;;;;;;6.03;5.53;;;2.20;78.60;2.20;96501.00;;;;4966176;28;20468;-82
2022/04/04 06:43:27;;;;;;;6.40;5.27;;;2.20;78.30;2.30;96512.00;;;;4964826;29;20507;-81
2022/04/04 06:45:54;;;;;;;6.03;5.47;;;2.30;78.20;2.30;96505.00;;;;4957712;28;20523;-81
2022/04/04 06:48:23;;;;;;;6.07;5.47;;;2.40;78.00;2.40;96506.00;;;;4970204;28;20451;-81
2022/04/04 06:50:51;;;;;;;6.07;5.57;;;2.40;77.90;2.40;96502.00;;;;4964677;28;20483;-81
2022/04/04 06:53:21;;;;;;;5.73;5.23;;;2.50;77.80;2.50;96498.00;;;;4964153;28;20538;-81
2022/04/04 06:55:48;;;;;;;5.87;5.00;;;2.60;77.60;2.50;96502.00;;;;4964095;28;20443;-81
2022/04/04 06:58:16;;;;;;;5.63;5.03;;;2.60;77.50;2.60;96495.00;;;;4967455;28;20451;-81
2022/04/04 07:00:45;;;;;;;4.97;4.47;;;2.70;77.00;2.70;96495.00;;;;4951561;28;20488;-81
2022/04/04 07:03:12;;;;;;;5.17;4.60;;;2.80;77.00;2.80;96507.00;;;;4961585;28;20466;-81
2022/04/04 07:05:40;;;;;;;5.20;4.60;;;2.80;77.10;2.80;96497.00;;;;4958968;28;20458;-81
2022/04/04 07:08:09;;;;;;;5.27;4.77;;;2.90;76.90;2.90;96492.00;;;;4964552;28;20444;-82
2022/04/04 07:10:37;;;;;;;4.40;4.00;;;3.00;77.00;3.00;96489.00;;;;4960656;28;20491;-81
2022/04/04 07:13:05;;;;;;;4.27;3.87;;;3.10;77.00;3.10;96497.00;;;;4957747;28;20458;-81
2022/04/04 07:15:33;;;;;;;4.73;4.30;;;3.10;76.60;3.20;96492.00;;;;4965134;28;20448;-81
2022/04/04 07:18:01;;;;;;;4.63;4.10;;;3.20;77.10;3.30;96493.00;;;;4965880;28;20440;-81
2022/04/04 07:20:28;;;;;;;4.43;4.00;;;3.30;77.00;3.30;96489.00;;;;4962921;28;20463;-82
2022/04/04 07:22:57;;;;;;;4.50;4.10;;;3.40;77.10;3.40;96489.00;;;;4960280;28;20447;-81
2022/04/04 07:25:24;;;;;;;4.93;4.43;;;3.50;77.00;3.50;96494.00;;;;4961643;28;20495;-82
2022/04/04 07:27:51;;;;;;;4.27;3.90;;;3.60;77.10;3.70;96494.00;;;;4960111;29;20447;-82
2022/04/04 07:30:20;;;;;;;4.90;4.40;;;3.70;78.00;3.90;96486.00;;;;4958865;28;20847;-82
2022/04/04 07:32:49;;;;;;;6.40;4.53;;;3.80;78.20;4.10;96487.00;;;;4956574;28;20440;-83
2022/04/04 07:35:16;;;;;;;6.60;4.27;;;3.90;78.40;4.30;96493.00;;;;4955380;28;20444;-83
2022/04/04 07:37:45;;;;;;;4.00;3.70;;;4.10;77.90;4.50;96492.00;;;;4954483;28;20199;-83
2022/04/04 07:40:16;;;;;;;3.70;3.40;;;4.30;77.60;4.70;96501.00;;;;4953644;28;20208;-83
2022/04/04 07:42:45;;;;;;;3.87;3.53;;;4.40;77.60;5.00;96501.00;;;;4953896;28;20204;-83
2022/04/04 07:45:15;;;;;;;4.27;3.57;;;4.60;77.20;5.20;96498.00;;;;4953976;28;20196;-84
2022/04/04 07:47:43;;;;;;;3.57;3.17;;;4.90;77.90;5.40;96504.00;;;;4954798;28;20196;-83
2022/04/04 07:50:14;;;;;;;3.43;3.10;;;5.00;77.00;5.70;96503.00;;;;4954957;28;20212;-83
2022/04/04 07:52:41;;;;;;;3.50;3.20;;;5.20;76.60;5.90;96511.00;;;;4955384;28;20212;-83
2022/04/04 07:55:10;;;;;;;4.10;3.60;;;5.40;76.80;6.10;96507.00;;;;4956706;28;20268;-83
2022/04/04 07:57:40;;;;;;;4.90;3.10;;;5.60;76.70;6.40;96516.00;;;;4958756;28;20642;-82
2022/04/04 08:00:09;;;;;;;3.00;2.70;;;5.80;76.20;6.60;96506.00;;;;4957587;28;20204;-83
2022/04/04 08:02:39;;;;;;;3.63;2.70;;;6.00;76.20;6.90;96518.00;;;;4959232;28;20208;-83
2022/04/04 08:05:07;;;;;;;3.50;2.93;;;6.20;76.40;7.20;96513.00;;;;4947066;29;20196;-83
2022/04/04 08:07:34;;;;;;;2.90;2.70;;;6.40;75.90;7.50;96514.00;;;;4959557;28;20204;-82
2022/04/04 08:10:01;;;;;;;3.47;3.17;;;6.60;76.40;7.80;96508.00;;;;4960571;28;20192;-82
2022/04/04 08:12:28;;;;;;;3.27;2.70;;;6.90;75.80;8.10;96515.00;;;;4963586;28;20284;-82
2022/04/04 08:14:57;;;;;;;3.00;2.80;;;7.10;76.10;8.40;96508.00;;;;4964744;28;20371;-82
2022/04/04 08:17:25;;;;;;;3.13;2.83;;;7.30;76.50;8.70;96504.00;;;;4964463;28;20231;-82
2022/04/04 08:19:52;;;;;;;3.30;2.80;;;7.60;76.10;9.00;96522.00;;;;4963226;28;20279;-81
2022/04/04 08:22:20;;;;;;;2.90;2.70;;;7.90;77.50;9.30;96518.00;;;;4964794;28;20209;-82
2022/04/04 08:24:48;;;;;;;2.73;2.53;;;8.10;77.30;9.50;96516.00;;;;4960730;29;20203;-82
2022/04/04 08:27:15;;;;;;;2.53;2.33;;;8.30;76.90;9.80;96512.00;;;;4961998;28;20312;-82
2022/04/04 08:29:42;;;;;;;2.80;2.60;;;8.60;76.70;10.10;96518.00;;;;4972932;28;20254;-82
2022/04/04 08:32:11;;;;;;;2.93;2.40;;;8.80;74.70;10.50;96522.00;;;;4959818;28;20230;-82
2022/04/04 08:34:39;;;;;;;2.60;2.40;;;9.10;75.30;10.80;96522.00;;;;4957686;28;20204;-82
2022/04/04 08:37:07;;;;;;;2.73;2.53;;;9.30;76.00;11.10;96515.00;;;;4959302;28;20206;-81
2022/04/04 08:39:34;;;;;;;2.50;2.30;;;9.60;75.90;11.30;96524.00;;;;4958435;28;20562;-81
2022/04/04 08:42:02;;;;;;;2.60;2.40;;;9.90;75.70;11.60;96514.00;;;;4957279;28;20223;-82
2022/04/04 08:44:29;;;;;;;2.70;2.47;;;10.20;75.50;11.90;96522.00;;;;4957276;29;20200;-82
2022/04/04 08:46:57;;;;;;;2.47;2.27;;;10.60;75.80;12.20;96512.00;;;;4955179;28;20228;-81
2022/04/04 08:49:26;;;;;;;2.57;2.37;;;10.90;76.00;12.60;96521.00;;;;4950636;29;20202;-82
2022/04/04 08:51:53;;;;;;;2.13;2.03;;;11.30;74.20;12.80;96519.00;;;;4958089;28;20228;-83
2022/04/04 08:54:20;;;;;;;2.30;2.20;;;11.70;74.50;13.10;96528.00;;;;4957714;28;20202;-83
2022/04/04 08:56:47;;;;;;;2.10;2.00;;;12.10;73.40;13.40;96528.00;;;;4956377;29;20193;-83
2022/04/04 08:59:14;;;;;;;2.57;2.37;;;12.60;73.10;13.60;96515.00;;;;4956916;28;20192;-83
2022/04/04 09:01:41;;;;;;;3.00;2.50;;;13.00;73.70;13.90;96521.00;;;;4957954;28;20657;-82
2022/04/04 09:04:19;;;;;;;1.90;1.80;;;13.50;69.70;14.20;96522.00;;;;4957110;28;20296;-83
2022/04/04 09:06:52;;;;;;;2.37;1.80;;;13.90;67.20;14.40;96517.00;;;;4957099;28;20200;-82
2022/04/04 09:09:22;;;;;;;1.83;1.73;;;14.30;69.00;14.60;96519.00;;;;4955633;28;20200;-83
2022/04/04 09:12:14;;;;;;;1.57;1.47;;;14.70;69.50;14.70;96512.00;;;;4955863;28;20224;-83
2022/04/04 09:14:45;;;;;;;2.07;1.97;;;15.00;67.40;14.90;96509.00;;;;4957253;28;20757;-82
2022/04/04 09:17:14;;;;;;;1.90;1.80;;;15.30;69.20;15.10;96515.00;;;;4956657;29;20206;-83
2022/04/04 09:19:42;;;;;;;1.80;1.70;;;15.60;67.80;15.30;96513.00;;;;4955950;28;20204;-82
2022/04/04 09:22:12;;;;;;;2.20;2.00;;;15.80;66.00;15.30;96512.00;;;;4953576;28;20219;-83
2022/04/04 09:24:44;;;;;;;1.77;1.67;;;16.10;64.70;15.40;96496.00;;;;4953269;28;20571;-83
2022/04/04 09:27:13;;;;;;;1.63;1.43;;;16.40;63.60;15.50;96511.00;;;;4938087;28;20288;-82
2022/04/04 09:29:42;;;;;;;1.57;1.47;;;16.70;62.60;15.60;96502.00;;;;4956411;28;20291;-83
2022/04/04 09:32:14;;;;;;;1.87;1.63;;;16.90;63.60;15.70;96497.00;;;;4960527;28;20220;-83
2022/04/04 09:35:08;;;;;;;1.83;1.73;;;17.20;64.60;15.90;96507.00;;;;4959675;29;20204;-82
2022/04/04 09:37:39;;;;;;;2.03;1.77;;;17.50;62.20;16.00;96493.00;;;;4959343;28;20216;-82
2022/04/04 09:40:11;;;;;;;2.00;1.80;;;17.70;62.00;16.00;96483.00;;;;4958489;28;20212;-83
2022/04/04 09:42:39;;;;;;;1.53;1.43;;;17.70;59.20;16.00;96490.00;;;;4955727;29;20204;-84
2022/04/04 09:45:09;;;;;;;1.77;1.67;;;18.00;61.60;16.00;96483.00;;;;4957744;28;20291;-83
2022/04/04 09:47:55;;;;;;;1.90;1.80;;;18.00;58.30;16.00;96477.00;;;;4955578;29;20204;-83
2022/04/04 09:50:39;;;;;;;1.90;1.80;;;18.10;56.80;16.10;96477.00;;;;4958565;28;20216;-83
2022/04/04 09:53:11;;;;;;;2.47;1.90;;;18.20;56.30;16.20;96478.00;;;;4960975;28;20219;-83
2022/04/04 09:55:40;;;;;;;1.63;1.53;;;18.20;58.80;16.30;96464.00;;;;4959841;29;20192;-83
2022/04/04 09:58:11;;;;;;;2.00;1.80;;;18.30;58.30;16.30;96463.00;;;;4960326;28;20667;-83
2022/04/04 10:00:42;;;;;;;1.73;1.63;;;18.30;58.30;16.30;96462.00;;;;4959363;29;20224;-83
2022/04/04 10:03:12;;;;;;;1.70;1.60;;;18.30;56.80;16.30;96464.00;;;;4953482;28;20597;-82
2022/04/04 10:05:43;;;;;;;1.20;1.20;;;18.40;59.00;16.30;96449.00;;;;4960817;28;20188;-83
2022/04/04 10:08:15;;;;;;;1.70;1.60;;;18.40;56.90;16.30;96446.00;;;;4961224;29;20196;-83
2022/04/04 10:10:44;;;;;;;1.97;1.87;;;18.30;58.10;16.30;96448.00;;;;4957139;28;20224;-83
2022/04/04 10:13:15;;;;;;;1.80;1.70;;;18.30;57.00;16.30;96449.00;;;;4960037;28;20258;-83
2022/04/04 10:15:42;;;;;;;3.00;2.80;;;18.20;57.20;16.30;96444.00;;;;4946266;29;20204;-83
2022/04/04 10:18:10;;;;;;;2.30;2.20;;;18.20;52.50;16.20;96437.00;;;;4960095;28;20196;-83
2022/04/04 10:20:38;;;;;;;2.43;2.10;;;18.10;51.20;16.00;96427.00;;;;4962102;28;20224;-83
2022/04/04 10:23:11;;;;;;;2.70;2.50;;;18.00;53.40;15.80;96426.00;;;;4959667;28;20200;-83
2022/04/04 10:25:41;;;;;;;2.47;2.27;;;17.90;54.00;15.60;96415.00;;;;4958674;28;20211;-83
2022/04/04 10:28:09;;;;;;;2.37;2.13;;;17.70;51.30;15.30;96419.00;;;;4959262;28;20282;-82
2022/04/04 10:30:40;;;;;;;2.80;2.60;;;17.50;52.80;15.10;96411.00;;;;4957616;28;20278;-83
2022/04/04 10:33:19;;;;;;;2.67;2.47;;;17.20;50.20;14.90;96402.00;;;;4957065;29;20208;-83
2022/04/04 10:36:01;;;;;;;2.70;2.50;;;17.00;52.20;14.80;96394.00;;;;4957298;29;20204;-83
2022/04/04 10:38:31;;;;;;;2.67;2.47;;;16.80;50.50;14.70;96396.00;;;;4956892;29;20200;-83
2022/04/04 10:41:02;;;;;;;2.90;2.70;;;16.60;53.00;14.50;96385.00;;;;4946332;28;20939;-84
2022/04/04 10:43:33;;;;;;;2.63;2.47;;;16.50;53.60;14.50;96371.00;;;;4954157;28;20185;-85
2022/04/04 10:46:04;;;;;;;3.00;2.70;;;16.40;52.90;14.60;96362.00;;;;4953803;28;20189;-86
2022/04/04 10:48:35;;;;;;;2.70;2.50;;;16.30;52.90;14.60;96355.00;;;;4954565;29;20210;-85
2022/04/04 10:51:10;;;;;;;2.53;2.40;;;16.20;53.40;14.60;96359.00;;;;4953469;28;20232;-85
2022/04/04 10:53:43;;;;;;;3.07;2.87;;;16.00;53.00;14.50;96362.00;;;;4954858;29;20661;-86
2022/04/04 10:56:18;;;;;;;3.17;2.87;;;15.80;52.60;14.40;96360.00;;;;4935425;29;20243;-85
2022/04/04 10:58:46;;;;;;;2.80;2.60;;;15.60;52.30;14.30;96354.00;;;;4954638;28;20195;-84
2022/04/04 11:01:16;;;;;;;3.00;2.80;;;15.30;52.10;14.10;96351.00;;;;4968463;28;20258;-84
2022/04/04 11:04:00;;;;;;;2.90;2.70;;;14.90;51.20;13.90;96335.00;;;;4972105;28;20278;-83
2022/04/04 11:09:32;;;;;;;3.17;2.93;;;14.40;52.10;13.40;96334.00;;;;4937177;29;20200;-84
2022/04/04 11:12:15;;;;;;;2.73;2.63;;;14.00;52.80;13.20;96331.00;;;;4954299;28;20228;-84
2022/04/04 11:14:57;;;;;;;3.43;3.10;;;13.80;52.30;13.00;96313.00;;;;4949952;29;20255;-83
2022/04/04 11:17:33;;;;;;;3.57;3.30;;;13.50;52.50;12.80;96314.00;;;;4935547;29;20263;-83